createdAt,value
2022-12-27T00:00:32.704Z,9.37
2022-12-27T00:02:04.876Z,6.30
2022-12-27T00:03:36.544Z,9.10
2022-12-27T00:05:09.243Z,5.83
2022-12-27T00:06:41.410Z,7.90
2022-12-27T00:08:13.427Z,8.53
2022-12-27T00:09:45.271Z,6.90
2022-12-27T00:11:20.266Z,7.57
2022-12-27T00:12:53.090Z,3.80
2022-12-27T00:14:24.824Z,6.93
2022-12-27T00:16:03.336Z,7.70
2022-12-27T00:17:34.953Z,8.73
2022-12-27T00:19:06.634Z,4.97
2022-12-27T00:20:38.271Z,7.57
2022-12-27T00:22:09.890Z,7.40
2022-12-27T00:23:44.847Z,8.27
2022-12-27T00:25:16.580Z,6.00
2022-12-27T00:26:48.217Z,6.67
2022-12-27T00:28:19.927Z,6.17
2022-12-27T00:29:51.643Z,10.10
2022-12-27T00:31:24.622Z,5.27
2022-12-27T00:32:56.257Z,3.43
2022-12-27T00:34:28.151Z,7.17
2022-12-27T00:36:01.389Z,9.47
2022-12-27T00:37:33.049Z,5.13
2022-12-27T00:39:05.187Z,9.43
2022-12-27T00:40:39.556Z,8.93
2022-12-27T00:42:11.274Z,6.30
2022-12-27T00:43:43.665Z,6.10
2022-12-27T00:45:15.715Z,6.87
2022-12-27T00:46:47.441Z,6.40
2022-12-27T00:48:19.401Z,6.73
2022-12-27T00:49:51.039Z,8.23
2022-12-27T00:51:25.108Z,4.43
2022-12-27T00:52:56.766Z,6.27
2022-12-27T00:54:28.375Z,4.57
2022-12-27T00:56:02.424Z,4.97
2022-12-27T00:57:34.701Z,6.37
2022-12-27T00:59:06.360Z,7.83
2022-12-27T01:00:38.074Z,4.40
2022-12-27T01:02:09.747Z,5.20
2022-12-27T01:03:41.463Z,4.40
2022-12-27T01:05:13.216Z,10.27
2022-12-27T01:06:44.886Z,7.73
2022-12-27T01:08:16.459Z,10.20
2022-12-27T01:09:48.049Z,9.77
2022-12-27T01:11:19.704Z,7.13
2022-12-27T01:12:51.863Z,6.57
2022-12-27T01:14:23.505Z,4.83
2022-12-27T01:15:55.299Z,3.00
2022-12-27T01:17:28.667Z,5.13
2022-12-27T01:19:00.821Z,6.07
2022-12-27T01:20:32.487Z,4.87
2022-12-27T01:22:05.116Z,4.90
2022-12-27T01:23:37.171Z,5.97
2022-12-27T01:25:08.963Z,6.70
2022-12-27T01:26:41.431Z,7.23
2022-12-27T01:28:13.071Z,4.73
2022-12-27T01:29:44.740Z,8.60
2022-12-27T01:31:23.179Z,8.87
2022-12-27T01:32:54.895Z,6.90
2022-12-27T01:34:26.644Z,5.10
2022-12-27T01:35:58.248Z,10.67
2022-12-27T01:37:30.340Z,7.00
2022-12-27T01:39:02.296Z,6.00
2022-12-27T01:40:36.293Z,6.40
2022-12-27T01:42:37.918Z,4.50
2022-12-27T01:44:40.731Z,6.80
2022-12-27T01:46:12.662Z,7.73
2022-12-27T01:48:09.178Z,5.13
2022-12-27T01:49:57.084Z,11.20
2022-12-27T01:51:28.771Z,7.10
2022-12-27T01:53:18.588Z,9.00
2022-12-27T01:54:51.126Z,7.40
2022-12-27T01:56:29.750Z,8.83
2022-12-27T01:58:22.815Z,5.87
2022-12-27T01:59:54.672Z,5.00
2022-12-27T02:01:43.926Z,7.60
2022-12-27T02:03:38.673Z,2.30
2022-12-27T02:05:14.521Z,6.90
2022-12-27T02:06:46.952Z,9.50
2022-12-27T02:08:51.964Z,4.37
2022-12-27T02:10:25.069Z,3.10
2022-12-27T02:11:58.018Z,6.77
2022-12-27T02:13:33.408Z,5.53
2022-12-27T02:15:05.349Z,8.67
2022-12-27T02:16:37.079Z,8.43
2022-12-27T02:18:08.832Z,3.90
2022-12-27T02:19:40.451Z,6.00
2022-12-27T02:21:33.873Z,4.07
2022-12-27T02:23:54.423Z,6.33
2022-12-27T02:25:53.017Z,3.80
2022-12-27T02:28:00.173Z,6.40
2022-12-27T02:30:02.840Z,9.70
2022-12-27T02:31:59.274Z,2.83
2022-12-27T02:33:34.613Z,4.30
2022-12-27T02:35:15.457Z,5.30
2022-12-27T02:36:48.193Z,7.67
2022-12-27T02:38:32.805Z,10.33
2022-12-27T02:40:27.599Z,4.70
2022-12-27T02:42:19.131Z,2.83
2022-12-27T02:44:15.481Z,3.00
2022-12-27T02:46:18.435Z,6.57
2022-12-27T02:48:19.089Z,4.03
2022-12-27T02:50:09.437Z,3.93
2022-12-27T02:52:02.751Z,3.33
2022-12-27T02:53:59.779Z,4.77
2022-12-27T02:56:13.018Z,5.30
2022-12-27T02:58:05.258Z,6.30
2022-12-27T03:00:27.929Z,8.73
2022-12-27T03:02:42.815Z,4.40
2022-12-27T03:04:23.853Z,14.63
2022-12-27T03:06:41.721Z,6.60
2022-12-27T03:08:24.807Z,8.63
2022-12-27T03:10:37.771Z,4.37
2022-12-27T03:12:43.920Z,3.50
2022-12-27T03:14:46.480Z,10.40
2022-12-27T03:16:41.553Z,8.53
2022-12-27T03:18:21.222Z,4.40
2022-12-27T03:20:17.401Z,4.83
2022-12-27T03:22:08.354Z,4.47
2022-12-27T03:24:01.847Z,9.40
2022-12-27T03:25:35.705Z,7.70
2022-12-27T03:27:22.123Z,5.00
2022-12-27T03:29:14.227Z,5.40
2022-12-27T03:31:08.613Z,5.30
2022-12-27T03:33:06.885Z,6.63
2022-12-27T03:34:47.265Z,5.33
2022-12-27T03:36:42.282Z,4.27
2022-12-27T03:38:14.762Z,9.93
2022-12-27T03:40:15.663Z,3.10
2022-12-27T03:42:12.788Z,4.80
2022-12-27T03:43:45.132Z,3.93
2022-12-27T03:45:21.026Z,7.27
2022-12-27T03:46:56.629Z,7.80
2022-12-27T03:48:33.572Z,3.73
2022-12-27T03:50:19.788Z,7.27
2022-12-27T03:52:09.857Z,3.43
2022-12-27T03:53:45.679Z,5.13
2022-12-27T03:55:17.873Z,11.67
2022-12-27T03:56:49.507Z,4.60
2022-12-27T03:58:21.319Z,4.30
2022-12-27T03:59:53.026Z,5.20
2022-12-27T04:01:24.898Z,6.17
2022-12-27T04:02:57.274Z,3.37
2022-12-27T04:04:29.026Z,7.77
2022-12-27T04:06:00.639Z,2.50
2022-12-27T04:07:32.284Z,2.20
2022-12-27T04:09:22.638Z,4.77
2022-12-27T04:11:12.952Z,3.53
2022-12-27T04:13:03.370Z,5.80
2022-12-27T04:14:53.721Z,6.60
2022-12-27T04:16:44.035Z,7.43
2022-12-27T04:18:34.928Z,6.87
2022-12-27T04:20:25.518Z,4.73
2022-12-27T04:22:15.984Z,6.87
2022-12-27T04:24:06.296Z,5.43
2022-12-27T04:25:56.806Z,6.57
2022-12-27T04:27:47.632Z,9.43
2022-12-27T04:29:38.016Z,11.83
2022-12-27T04:31:28.470Z,6.07
2022-12-27T04:33:18.735Z,4.80
2022-12-27T04:34:50.351Z,5.37
2022-12-27T04:36:21.977Z,4.67
2022-12-27T04:37:53.683Z,3.53
2022-12-27T04:39:25.400Z,2.27
2022-12-27T04:41:15.861Z,6.80
2022-12-27T04:43:06.357Z,5.30
2022-12-27T04:45:03.857Z,4.00
2022-12-27T04:46:54.115Z,7.33
2022-12-27T04:48:47.753Z,4.80
2022-12-27T04:50:43.800Z,9.60
2022-12-27T04:52:39.667Z,5.00
2022-12-27T04:54:39.446Z,8.40
2022-12-27T04:56:11.037Z,3.70
2022-12-27T04:57:42.672Z,9.50
2022-12-27T04:59:33.044Z,5.30
2022-12-27T05:01:23.630Z,4.80
2022-12-27T05:02:56.256Z,4.80
2022-12-27T05:04:27.985Z,4.93
2022-12-27T05:06:00.649Z,3.37
2022-12-27T05:07:51.012Z,1.80
2022-12-27T05:09:41.572Z,11.20
2022-12-27T05:11:31.908Z,2.40
2022-12-27T05:13:22.386Z,7.30
2022-12-27T05:14:54.012Z,5.20
2022-12-27T05:16:37.506Z,6.83
2022-12-27T05:18:09.153Z,9.80
2022-12-27T05:19:40.789Z,5.27
2022-12-27T05:21:12.587Z,7.30
2022-12-27T05:23:04.883Z,9.03
2022-12-27T05:24:55.226Z,6.23
2022-12-27T05:26:30.032Z,9.17
2022-12-27T05:28:02.258Z,6.33
2022-12-27T05:29:35.911Z,4.53
2022-12-27T05:31:07.585Z,4.00
2022-12-27T05:32:39.282Z,4.57
2022-12-27T05:34:10.933Z,5.07
2022-12-27T05:35:43.081Z,5.87
2022-12-27T05:37:14.756Z,6.57
2022-12-27T05:38:46.501Z,6.67
2022-12-27T05:40:18.122Z,6.63
2022-12-27T05:41:49.730Z,3.77
2022-12-27T05:43:21.372Z,5.73
2022-12-27T05:44:53.000Z,4.93
2022-12-27T05:46:24.659Z,2.83
2022-12-27T05:47:56.648Z,4.97
2022-12-27T05:49:28.295Z,6.27
2022-12-27T05:51:06.948Z,6.20
2022-12-27T05:52:41.171Z,7.47
2022-12-27T05:54:13.293Z,8.10
2022-12-27T05:55:56.645Z,6.40
2022-12-27T05:57:28.448Z,8.93
2022-12-27T05:59:01.291Z,5.20
2022-12-27T06:00:33.035Z,4.57
2022-12-27T06:02:04.780Z,7.70
2022-12-27T06:03:37.792Z,4.20
2022-12-27T06:05:09.999Z,6.77
2022-12-27T06:06:41.698Z,3.37
2022-12-27T06:08:13.479Z,7.83
2022-12-27T06:09:45.182Z,4.20
2022-12-27T06:11:19.420Z,4.73
2022-12-27T06:12:51.048Z,5.30
2022-12-27T06:14:22.698Z,4.23
2022-12-27T06:15:54.299Z,5.20
2022-12-27T06:17:25.960Z,3.90
2022-12-27T06:18:57.596Z,1.97
2022-12-27T06:20:29.624Z,3.23
2022-12-27T06:22:01.231Z,3.67
2022-12-27T06:23:34.890Z,5.60
2022-12-27T06:25:12.457Z,8.60
2022-12-27T06:26:45.878Z,9.13
2022-12-27T06:28:17.508Z,8.00
2022-12-27T06:29:49.117Z,5.73
2022-12-27T06:31:21.243Z,4.97
2022-12-27T06:32:52.947Z,12.63
2022-12-27T06:34:24.611Z,4.53
2022-12-27T06:35:56.498Z,3.63
2022-12-27T06:37:30.349Z,5.57
2022-12-27T06:39:02.043Z,6.33
2022-12-27T06:40:33.761Z,5.50
2022-12-27T06:42:05.404Z,9.43
2022-12-27T06:43:37.560Z,6.60
2022-12-27T06:45:10.546Z,14.03
2022-12-27T06:46:42.196Z,6.73
2022-12-27T06:48:13.863Z,4.03
2022-12-27T06:49:45.514Z,6.10
2022-12-27T06:51:18.785Z,8.07
2022-12-27T06:52:53.679Z,8.23
2022-12-27T06:54:25.336Z,18.43
2022-12-27T06:55:57.017Z,9.30
2022-12-27T06:57:28.789Z,7.37
2022-12-27T06:59:00.576Z,7.13
2022-12-27T07:00:32.216Z,9.83
2022-12-27T07:02:04.187Z,6.50
2022-12-27T07:03:36.392Z,7.83
2022-12-27T07:05:09.505Z,7.73
2022-12-27T07:06:41.199Z,5.43
2022-12-27T07:08:12.924Z,8.03
2022-12-27T07:09:44.588Z,13.70
2022-12-27T07:11:17.251Z,7.97
2022-12-27T07:12:49.179Z,3.43
2022-12-27T07:14:20.800Z,6.43
2022-12-27T07:15:52.434Z,6.87
2022-12-27T07:17:24.161Z,4.30
2022-12-27T07:18:57.687Z,4.60
2022-12-27T07:20:29.374Z,6.33
2022-12-27T07:22:01.033Z,7.37
2022-12-27T07:23:33.074Z,8.90
2022-12-27T07:25:05.732Z,7.87
2022-12-27T07:26:37.539Z,9.20
2022-12-27T07:28:09.228Z,5.13
2022-12-27T07:29:45.537Z,8.30
2022-12-27T07:31:20.086Z,12.57
2022-12-27T07:32:51.920Z,5.60
2022-12-27T07:34:23.652Z,5.20
2022-12-27T07:36:00.488Z,5.57
2022-12-27T07:37:32.147Z,5.07
2022-12-27T07:39:05.126Z,4.60
2022-12-27T07:40:37.453Z,8.30
2022-12-27T07:42:09.108Z,6.00
2022-12-27T07:43:44.135Z,10.60
2022-12-27T07:45:15.786Z,5.17
2022-12-27T07:46:47.533Z,5.63
2022-12-27T07:48:19.186Z,9.30
2022-12-27T07:49:50.792Z,9.00
2022-12-27T07:51:23.827Z,7.13
2022-12-27T07:52:55.554Z,8.63
2022-12-27T07:54:27.225Z,6.97
2022-12-27T07:55:59.366Z,8.33
2022-12-27T07:57:31.009Z,9.13
2022-12-27T07:59:03.199Z,6.00
2022-12-27T08:00:34.887Z,10.33
2022-12-27T08:02:07.072Z,8.60
2022-12-27T08:03:40.777Z,4.43
2022-12-27T08:05:12.653Z,7.73
2022-12-27T08:06:46.031Z,11.73
2022-12-27T08:08:21.070Z,5.67
2022-12-27T08:09:52.755Z,5.20
2022-12-27T08:11:26.484Z,8.43
2022-12-27T08:12:58.137Z,5.33
2022-12-27T08:14:29.996Z,4.60
2022-12-27T08:16:01.849Z,4.57
2022-12-27T08:17:33.561Z,5.67
2022-12-27T08:19:08.511Z,7.50
2022-12-27T08:20:40.423Z,7.30
2022-12-27T08:22:12.174Z,7.47
2022-12-27T08:23:43.875Z,7.60
2022-12-27T08:25:15.565Z,6.43
2022-12-27T08:26:48.661Z,10.20
2022-12-27T08:28:20.340Z,7.67
2022-12-27T08:29:52.035Z,4.63
2022-12-27T08:31:23.731Z,4.40
2022-12-27T08:32:55.447Z,9.30
2022-12-27T08:34:27.128Z,5.83
2022-12-27T08:36:15.756Z,8.03
2022-12-27T08:37:54.619Z,5.50
2022-12-27T08:39:27.784Z,6.13
2022-12-27T08:40:59.440Z,6.50
2022-12-27T08:42:31.069Z,8.83
2022-12-27T08:44:02.782Z,9.10
2022-12-27T08:45:35.279Z,4.70
2022-12-27T08:47:06.944Z,4.13
2022-12-27T08:48:38.638Z,4.30
2022-12-27T08:50:10.428Z,7.10
2022-12-27T08:51:42.069Z,7.67
2022-12-27T08:53:13.744Z,5.40
2022-12-27T08:54:45.389Z,4.00
2022-12-27T08:56:17.188Z,4.87
2022-12-27T08:57:48.855Z,7.93
2022-12-27T08:59:20.466Z,7.10
2022-12-27T09:00:52.215Z,7.77
2022-12-27T09:02:23.937Z,5.40
2022-12-27T09:03:55.707Z,4.80
2022-12-27T09:05:27.900Z,6.97
2022-12-27T09:06:59.542Z,6.37
2022-12-27T09:08:31.436Z,3.93
2022-12-27T09:10:04.173Z,3.50
2022-12-27T09:11:35.902Z,7.10
2022-12-27T09:13:07.752Z,5.63
2022-12-27T09:14:39.352Z,3.33
2022-12-27T09:16:17.011Z,6.00
2022-12-27T09:17:48.709Z,14.60
2022-12-27T09:19:20.375Z,8.33
2022-12-27T09:20:52.069Z,7.43
2022-12-27T09:22:23.711Z,9.70
2022-12-27T09:23:55.766Z,5.77
2022-12-27T09:25:27.881Z,9.43
2022-12-27T09:26:59.548Z,6.43
2022-12-27T09:28:31.303Z,5.70
2022-12-27T09:30:05.270Z,8.73
2022-12-27T09:31:37.016Z,11.30
2022-12-27T09:33:09.144Z,5.27
2022-12-27T09:34:41.161Z,3.20
2022-12-27T09:36:15.494Z,7.80
2022-12-27T09:37:47.120Z,5.03
2022-12-27T09:39:18.904Z,9.20
2022-12-27T09:40:59.181Z,7.33
2022-12-27T09:42:58.956Z,6.93
2022-12-27T09:44:51.383Z,7.40
2022-12-27T09:46:51.801Z,6.43
2022-12-27T09:48:39.732Z,7.00
2022-12-27T09:50:20.767Z,8.70
2022-12-27T09:51:59.637Z,3.97
2022-12-27T09:53:39.066Z,5.50
2022-12-27T09:55:29.832Z,9.20
2022-12-27T09:57:19.590Z,4.07
2022-12-27T09:58:58.461Z,3.73
2022-12-27T10:00:35.319Z,5.00
2022-12-27T10:02:22.278Z,8.03
2022-12-27T10:03:54.279Z,5.90
2022-12-27T10:05:32.416Z,7.60
2022-12-27T10:07:16.283Z,6.90
2022-12-27T10:09:09.073Z,8.43
2022-12-27T10:10:51.665Z,6.70
2022-12-27T10:12:52.257Z,7.27
2022-12-27T10:14:23.868Z,11.10
2022-12-27T10:16:14.263Z,8.60
2022-12-27T10:18:19.746Z,7.70
2022-12-27T10:20:24.036Z,6.87
2022-12-27T10:22:19.552Z,7.93
2022-12-27T10:24:19.354Z,5.13
2022-12-27T10:25:58.661Z,7.43
2022-12-27T10:27:31.303Z,12.50
2022-12-27T10:29:24.385Z,8.83
2022-12-27T10:30:56.321Z,9.80
2022-12-27T10:32:28.006Z,6.27
2022-12-27T10:34:00.394Z,5.87
2022-12-27T10:35:32.120Z,4.67
2022-12-27T10:37:03.722Z,2.77
2022-12-27T10:38:35.940Z,6.30
2022-12-27T10:40:40.306Z,6.37
2022-12-27T10:42:23.955Z,8.77
2022-12-27T10:43:55.885Z,7.73
2022-12-27T10:45:28.705Z,7.60
2022-12-27T10:47:01.678Z,9.03
2022-12-27T10:49:10.973Z,6.40
2022-12-27T10:50:28.366Z,14.30
2022-12-27T10:52:10.746Z,6.77
2022-12-27T10:53:45.650Z,8.50
2022-12-27T10:55:37.252Z,9.63
2022-12-27T10:57:38.138Z,6.13
2022-12-27T10:59:22.586Z,5.60
2022-12-27T11:00:56.362Z,9.73
2022-12-27T11:02:28.308Z,12.60
2022-12-27T11:04:21.194Z,6.47
2022-12-27T11:06:02.191Z,5.80
2022-12-27T11:07:34.696Z,8.23
2022-12-27T11:09:27.422Z,6.67
2022-12-27T11:11:14.000Z,6.63
2022-12-27T11:12:59.139Z,4.73
2022-12-27T11:14:30.850Z,11.73
2022-12-27T11:16:02.535Z,10.27
2022-12-27T11:17:52.926Z,5.87
2022-12-27T11:19:27.135Z,8.27
2022-12-27T11:21:01.748Z,9.93
2022-12-27T11:22:33.496Z,7.10
2022-12-27T11:24:05.849Z,6.30
2022-12-27T11:25:54.498Z,6.37
2022-12-27T11:27:28.504Z,8.60
2022-12-27T11:29:01.579Z,7.23
2022-12-27T11:30:40.009Z,9.67
2022-12-27T11:32:11.865Z,8.50
2022-12-27T11:33:52.836Z,10.47
2022-12-27T11:35:24.982Z,9.40
2022-12-27T11:37:06.468Z,6.63
2022-12-27T11:38:39.718Z,6.27
2022-12-27T11:40:37.655Z,4.67
2022-12-27T11:42:24.972Z,9.60
2022-12-27T11:44:02.705Z,9.80
2022-12-27T11:45:47.473Z,8.63
2022-12-27T11:47:35.595Z,10.00
2022-12-27T11:49:15.285Z,8.97
2022-12-27T11:51:20.737Z,6.90
2022-12-27T11:53:10.425Z,7.10
2022-12-27T11:55:06.653Z,10.20
2022-12-27T11:56:44.461Z,8.07
2022-12-27T11:58:40.396Z,17.37
2022-12-27T12:00:24.518Z,7.67
2022-12-27T12:02:23.859Z,6.73
2022-12-27T12:04:13.805Z,9.90
2022-12-27T12:06:10.227Z,13.03
2022-12-27T12:08:21.529Z,16.57
2022-12-27T12:10:05.073Z,13.67
2022-12-27T12:11:55.476Z,11.70
2022-12-27T12:13:51.661Z,20.63
2022-12-27T12:15:41.684Z,13.70
2022-12-27T12:17:57.270Z,17.83
2022-12-27T12:19:41.392Z,18.13
2022-12-27T12:21:26.038Z,18.30
2022-12-27T12:23:42.672Z,13.33
2022-12-27T12:25:48.646Z,13.70
2022-12-27T12:27:41.358Z,9.90
2022-12-27T12:29:40.309Z,9.80
2022-12-27T12:31:27.038Z,8.47
2022-12-27T12:33:22.247Z,10.00
2022-12-27T12:35:47.571Z,12.23
2022-12-27T12:37:28.352Z,11.03
2022-12-27T12:39:32.361Z,16.27
2022-12-27T12:41:22.583Z,13.43
2022-12-27T12:43:01.015Z,9.90
2022-12-27T12:45:00.727Z,9.07
2022-12-27T12:46:57.394Z,12.07
2022-12-27T12:48:50.946Z,35.80
2022-12-27T12:50:44.299Z,26.37
2022-12-27T12:52:40.784Z,19.80
2022-12-27T12:54:33.594Z,10.87
2022-12-27T12:56:14.356Z,11.67
2022-12-27T12:57:51.843Z,7.03
2022-12-27T12:59:52.561Z,7.30
2022-12-27T13:01:39.354Z,6.47
2022-12-27T13:03:29.538Z,9.27
2022-12-27T13:05:23.836Z,9.67
2022-12-27T13:07:48.966Z,7.10
2022-12-27T13:09:23.292Z,6.47
2022-12-27T13:11:31.116Z,19.47
2022-12-27T13:13:22.235Z,22.77
2022-12-27T13:15:13.035Z,16.47
2022-12-27T13:17:03.228Z,14.67
2022-12-27T13:18:53.993Z,11.23
2022-12-27T13:21:02.374Z,8.60
2022-12-27T13:22:43.696Z,8.70
2022-12-27T13:24:50.859Z,14.73
2022-12-27T13:26:31.463Z,39.77
2022-12-27T13:28:21.930Z,31.50
2022-12-27T13:30:07.348Z,15.17
2022-12-27T13:31:51.530Z,18.50
2022-12-27T13:33:38.631Z,10.27
2022-12-27T13:35:28.658Z,6.97
2022-12-27T13:37:16.176Z,9.70
2022-12-27T13:39:25.967Z,7.50
2022-12-27T13:41:28.061Z,5.83
2022-12-27T13:43:45.524Z,6.60
2022-12-27T13:45:49.547Z,7.70
2022-12-27T13:47:48.520Z,6.47
2022-12-27T13:49:53.484Z,12.10
2022-12-27T13:51:37.240Z,11.30
2022-12-27T13:53:39.149Z,9.03
2022-12-27T13:55:30.133Z,8.43
2022-12-27T13:57:16.892Z,12.23
2022-12-27T13:59:36.594Z,9.00
2022-12-27T14:01:29.601Z,9.23
2022-12-27T14:03:22.789Z,6.57
2022-12-27T14:05:09.410Z,8.50
2022-12-27T14:07:01.819Z,7.63
2022-12-27T14:08:36.190Z,9.00
2022-12-27T14:10:26.557Z,13.10
2022-12-27T14:12:26.000Z,6.83
2022-12-27T14:14:00.570Z,9.70
2022-12-27T14:15:41.385Z,11.00
2022-12-27T14:17:39.355Z,8.07
2022-12-27T14:19:19.702Z,8.70
2022-12-27T14:21:23.707Z,9.43
2022-12-27T14:23:20.142Z,4.87
2022-12-27T14:24:54.740Z,5.17
2022-12-27T14:26:54.532Z,12.40
2022-12-27T14:28:59.628Z,10.97
2022-12-27T14:30:45.581Z,12.57
2022-12-27T14:32:46.987Z,10.53
2022-12-27T14:34:36.726Z,8.37
2022-12-27T14:36:30.136Z,7.97
2022-12-27T14:38:23.047Z,9.70
2022-12-27T14:40:34.380Z,7.47
2022-12-27T14:42:34.331Z,8.40
2022-12-27T14:44:37.077Z,9.33
2022-12-27T14:46:43.847Z,7.90
2022-12-27T14:48:53.817Z,15.80
2022-12-27T14:50:38.141Z,10.70
2022-12-27T14:52:31.068Z,8.27
2022-12-27T14:54:29.562Z,6.33
2022-12-27T14:56:12.581Z,7.03
2022-12-27T14:58:01.892Z,8.70
2022-12-27T14:59:49.914Z,8.87
2022-12-27T15:01:46.998Z,10.20
2022-12-27T15:03:41.465Z,6.33
2022-12-27T15:05:22.829Z,11.70
2022-12-27T15:07:21.540Z,9.80
2022-12-27T15:09:07.748Z,7.00
2022-12-27T15:11:08.113Z,7.37
2022-12-27T15:12:55.999Z,12.60
2022-12-27T15:14:45.997Z,8.13
2022-12-27T15:16:42.964Z,12.83
2022-12-27T15:18:26.312Z,10.23
2022-12-27T15:20:16.598Z,6.83
2022-12-27T15:21:51.430Z,6.10
2022-12-27T15:23:23.066Z,7.80
2022-12-27T15:25:24.354Z,6.37
2022-12-27T15:27:24.812Z,7.10
2022-12-27T15:29:21.366Z,6.40
2022-12-27T15:31:02.628Z,5.67
2022-12-27T15:32:55.677Z,9.07
2022-12-27T15:34:54.574Z,7.53
2022-12-27T15:36:52.877Z,4.40
2022-12-27T15:38:42.142Z,6.03
2022-12-27T15:40:32.393Z,4.93
2022-12-27T15:42:09.108Z,6.87
2022-12-27T15:44:05.634Z,9.73
2022-12-27T15:46:00.420Z,8.00
2022-12-27T15:47:50.579Z,8.10
2022-12-27T15:49:34.465Z,9.20
2022-12-27T15:51:25.241Z,5.93
2022-12-27T15:53:03.732Z,6.40
2022-12-27T15:54:35.318Z,8.07
2022-12-27T15:56:41.408Z,10.80
2022-12-27T15:58:21.513Z,4.97
2022-12-27T16:00:08.979Z,4.10
2022-12-27T16:01:44.832Z,7.67
2022-12-27T16:03:39.347Z,10.33
2022-12-27T16:05:19.200Z,7.20
2022-12-27T16:07:00.546Z,6.47
2022-12-27T16:08:39.500Z,7.40
2022-12-27T16:10:29.627Z,5.00
2022-12-27T16:12:07.443Z,12.17
2022-12-27T16:13:48.096Z,5.70
2022-12-27T16:15:55.102Z,8.53
2022-12-27T16:17:48.815Z,4.40
2022-12-27T16:19:28.104Z,4.40
2022-12-27T16:21:18.119Z,6.30
2022-12-27T16:22:59.484Z,10.70
2022-12-27T16:24:31.551Z,4.80
2022-12-27T16:26:05.290Z,5.77
2022-12-27T16:27:37.175Z,7.07
2022-12-27T16:29:11.640Z,6.37
2022-12-27T16:30:49.274Z,6.80
2022-12-27T16:32:24.069Z,12.83
2022-12-27T16:33:57.697Z,5.53
2022-12-27T16:35:30.292Z,7.80
2022-12-27T16:37:02.211Z,5.70
2022-12-27T16:38:37.123Z,5.20
2022-12-27T16:40:21.236Z,7.37
2022-12-27T16:41:58.329Z,9.70
2022-12-27T16:43:57.077Z,3.90
2022-12-27T16:45:37.776Z,3.87
2022-12-27T16:47:36.415Z,6.53
2022-12-27T16:49:48.961Z,6.50
2022-12-27T16:51:53.892Z,7.17
2022-12-27T16:54:10.742Z,6.47
2022-12-27T16:56:11.088Z,6.17
2022-12-27T16:57:45.829Z,8.67
2022-12-27T16:59:55.878Z,6.63
2022-12-27T17:01:36.819Z,7.40
2022-12-27T17:03:21.300Z,5.50
2022-12-27T17:04:58.176Z,6.90
2022-12-27T17:06:33.246Z,8.33
2022-12-27T17:08:25.304Z,12.57
2022-12-27T17:10:25.696Z,4.50
2022-12-27T17:11:57.450Z,29.07
2022-12-27T17:13:42.001Z,17.67
2022-12-27T17:15:13.820Z,12.00
2022-12-27T17:16:53.348Z,18.67
2022-12-27T17:18:45.928Z,14.80
2022-12-27T17:20:19.524Z,10.60
2022-12-27T17:22:03.557Z,20.67
2022-12-27T17:23:43.589Z,9.27
2022-12-27T17:25:17.993Z,16.50
2022-12-27T17:26:56.297Z,10.57
2022-12-27T17:28:35.357Z,6.97
2022-12-27T17:30:13.155Z,12.93
2022-12-27T17:32:10.883Z,10.40
2022-12-27T17:34:03.852Z,8.33
2022-12-27T17:35:41.522Z,17.13
2022-12-27T17:37:18.163Z,7.60
2022-12-27T17:39:15.918Z,8.10
2022-12-27T17:40:53.339Z,5.90
2022-12-27T17:43:20.586Z,8.07
2022-12-27T17:45:04.562Z,5.63
2022-12-27T17:46:55.160Z,4.37
2022-12-27T17:48:31.540Z,7.63
2022-12-27T17:50:07.004Z,4.30
2022-12-27T17:52:01.738Z,10.53
2022-12-27T17:53:51.727Z,6.13
2022-12-27T17:55:44.961Z,6.73
2022-12-27T17:57:37.926Z,6.93
2022-12-27T17:59:22.968Z,8.57
2022-12-27T18:00:58.895Z,8.93
2022-12-27T18:02:37.376Z,7.00
2022-12-27T18:04:27.905Z,8.73
2022-12-27T18:05:59.673Z,6.67
2022-12-27T18:07:33.836Z,6.00
2022-12-27T18:09:07.139Z,3.80
2022-12-27T18:10:41.420Z,12.07
2022-12-27T18:12:30.390Z,7.20
2022-12-27T18:14:02.316Z,5.57
2022-12-27T18:15:36.919Z,8.20
2022-12-27T18:17:28.758Z,12.07
2022-12-27T18:19:02.921Z,8.90
2022-12-27T18:20:37.020Z,7.97
2022-12-27T18:22:18.772Z,9.10
2022-12-27T18:23:53.399Z,5.23
2022-12-27T18:25:27.458Z,7.23
2022-12-27T18:27:06.702Z,6.73
2022-12-27T18:28:39.252Z,7.63
2022-12-27T18:30:11.337Z,7.13
2022-12-27T18:31:50.969Z,4.50
2022-12-27T18:33:34.420Z,6.63
2022-12-27T18:35:07.809Z,7.23
2022-12-27T18:36:46.819Z,4.70
2022-12-27T18:38:28.693Z,4.73
2022-12-27T18:40:02.266Z,5.73
2022-12-27T18:41:38.239Z,5.17
2022-12-27T18:43:15.370Z,7.37
2022-12-27T18:44:50.490Z,4.90
2022-12-27T18:46:32.274Z,5.93
2022-12-27T18:48:11.774Z,9.53
2022-12-27T18:49:44.219Z,6.90
2022-12-27T18:51:15.998Z,5.90
2022-12-27T18:52:53.141Z,6.60
2022-12-27T18:54:29.731Z,5.73
2022-12-27T18:56:05.943Z,4.00
2022-12-27T18:57:37.805Z,10.53
2022-12-27T18:59:12.492Z,7.47
2022-12-27T19:01:05.410Z,16.40
2022-12-27T19:02:37.483Z,28.10
2022-12-27T19:04:20.680Z,26.13
2022-12-27T19:06:03.859Z,14.67
2022-12-27T19:07:35.553Z,19.47
2022-12-27T19:09:15.844Z,14.33
2022-12-27T19:10:50.428Z,12.40
2022-12-27T19:12:34.063Z,10.97
2022-12-27T19:14:05.896Z,18.17
2022-12-27T19:15:43.709Z,16.83
2022-12-27T19:17:24.390Z,25.87
2022-12-27T19:19:15.372Z,52.90
2022-12-27T19:21:02.496Z,27.13
2022-12-27T19:22:41.552Z,15.60
2022-12-27T19:24:28.665Z,21.40
2022-12-27T19:26:06.171Z,25.23
2022-12-27T19:27:37.845Z,21.90
2022-12-27T19:29:16.107Z,18.03
2022-12-27T19:31:04.067Z,27.93
2022-12-27T19:32:35.999Z,20.27
2022-12-27T19:34:14.221Z,20.33
2022-12-27T19:35:46.113Z,13.10
2022-12-27T19:37:18.582Z,18.30
2022-12-27T19:38:50.357Z,13.50
2022-12-27T19:40:22.040Z,16.50
2022-12-27T19:42:01.093Z,19.53
2022-12-27T19:43:45.206Z,73.03
2022-12-27T19:45:17.929Z,38.40
2022-12-27T19:46:49.662Z,36.00
2022-12-27T19:48:21.537Z,25.63
2022-12-27T19:49:53.398Z,32.00
2022-12-27T19:51:25.088Z,29.43
2022-12-27T19:52:56.978Z,29.07
2022-12-27T19:54:29.654Z,25.73
2022-12-27T19:56:02.797Z,39.57
2022-12-27T19:57:34.568Z,34.90
2022-12-27T19:59:06.255Z,34.03
2022-12-27T20:00:37.949Z,28.97
2022-12-27T20:02:10.213Z,27.07
2022-12-27T20:03:42.097Z,24.40
2022-12-27T20:05:13.905Z,25.43
2022-12-27T20:06:48.564Z,38.10
2022-12-27T20:08:25.522Z,25.00
2022-12-27T20:09:57.285Z,24.03
2022-12-27T20:11:28.978Z,19.47
2022-12-27T20:13:00.709Z,19.80
2022-12-27T20:14:32.334Z,23.93
2022-12-27T20:16:04.347Z,45.80
2022-12-27T20:17:39.685Z,39.40
2022-12-27T20:19:17.850Z,28.13
2022-12-27T20:20:50.453Z,20.93
2022-12-27T20:22:22.142Z,25.03
2022-12-27T20:23:53.797Z,24.70
2022-12-27T20:25:25.639Z,20.80
2022-12-27T20:26:57.569Z,18.20
2022-12-27T20:28:29.227Z,18.30
2022-12-27T20:30:00.901Z,15.50
2022-12-27T20:31:32.663Z,21.40
2022-12-27T20:33:05.331Z,24.07
2022-12-27T20:34:37.025Z,28.37
2022-12-27T20:36:09.293Z,20.03
2022-12-27T20:37:41.078Z,19.30
2022-12-27T20:39:13.042Z,22.43
2022-12-27T20:40:44.874Z,20.00
2022-12-27T20:42:16.583Z,19.67
2022-12-27T20:43:53.011Z,17.87
2022-12-27T20:45:24.773Z,19.07
2022-12-27T20:46:56.462Z,18.07
2022-12-27T20:48:28.103Z,14.00
2022-12-27T20:49:59.815Z,15.67
2022-12-27T20:51:34.189Z,19.83
2022-12-27T20:53:06.240Z,19.53
2022-12-27T20:54:37.935Z,12.73
2022-12-27T20:56:10.900Z,16.30
2022-12-27T20:57:42.641Z,32.10
2022-12-27T20:59:14.383Z,37.90
2022-12-27T21:00:46.065Z,37.60
2022-12-27T21:02:18.165Z,35.03
2022-12-27T21:03:50.298Z,29.93
2022-12-27T21:05:22.089Z,31.77
2022-12-27T21:06:53.812Z,28.93
2022-12-27T21:08:25.448Z,25.93
2022-12-27T21:09:57.132Z,22.97
2022-12-27T21:11:32.371Z,23.00
2022-12-27T21:13:04.047Z,22.13
2022-12-27T21:14:37.160Z,23.00
2022-12-27T21:16:18.253Z,27.20
2022-12-27T21:17:49.964Z,32.00
2022-12-27T21:19:21.639Z,24.03
2022-12-27T21:20:53.286Z,29.70
2022-12-27T21:22:25.088Z,24.17
2022-12-27T21:23:58.527Z,19.40
2022-12-27T21:25:30.275Z,17.27
2022-12-27T21:27:02.030Z,18.93
2022-12-27T21:28:33.802Z,18.77
2022-12-27T21:30:06.000Z,11.83
2022-12-27T21:31:38.261Z,14.90
2022-12-27T21:33:10.284Z,13.73
2022-12-27T21:34:42.143Z,15.40
2022-12-27T21:36:16.838Z,19.43
2022-12-27T21:37:48.539Z,12.27
2022-12-27T21:39:20.673Z,16.53
2022-12-27T21:41:04.396Z,19.00
2022-12-27T21:42:36.032Z,15.23
2022-12-27T21:44:08.026Z,13.20
2022-12-27T21:45:39.787Z,14.47
2022-12-27T21:47:11.427Z,14.43
2022-12-27T21:48:43.573Z,16.43
2022-12-27T21:50:15.278Z,12.43
2022-12-27T21:51:47.035Z,15.20
2022-12-27T21:53:19.586Z,21.43
2022-12-27T21:54:51.220Z,18.00
2022-12-27T21:56:23.589Z,19.10
2022-12-27T21:57:55.204Z,16.93
2022-12-27T21:59:26.812Z,22.20
2022-12-27T22:01:08.641Z,15.60
2022-12-27T22:02:40.996Z,16.17
2022-12-27T22:04:12.907Z,17.73
2022-12-27T22:05:44.754Z,14.30
2022-12-27T22:07:16.399Z,17.70
2022-12-27T22:08:51.802Z,16.67